createdAt,value
2023-03-10T00:00:06.580Z,5
2023-03-10T00:01:05.808Z,5
2023-03-10T00:02:06.419Z,5
2023-03-10T00:03:05.855Z,6
2023-03-10T00:04:06.461Z,6
2023-03-10T00:05:05.925Z,6
2023-03-10T00:06:06.686Z,6
2023-03-10T00:07:06.198Z,6
2023-03-10T00:08:06.661Z,6
2023-03-10T00:09:06.657Z,6
2023-03-10T00:10:06.229Z,6
2023-03-10T00:11:06.254Z,6
2023-03-10T00:12:06.028Z,6
2023-03-10T00:13:06.674Z,6
2023-03-10T00:14:06.263Z,6
2023-03-10T00:15:06.423Z,6
2023-03-10T00:16:07.102Z,6
2023-03-10T00:17:06.207Z,6
2023-03-10T00:18:06.304Z,6
2023-03-10T00:19:06.141Z,6
2023-03-10T00:20:06.664Z,6
2023-03-10T00:21:06.125Z,6
2023-03-10T00:22:06.770Z,6
2023-03-10T00:23:06.620Z,6
2023-03-10T00:24:06.216Z,6
2023-03-10T00:25:05.965Z,6
2023-03-10T00:26:06.202Z,6
2023-03-10T00:27:05.911Z,6
2023-03-10T00:28:06.497Z,6
2023-03-10T00:29:05.854Z,6
2023-03-10T00:30:06.538Z,6
2023-03-10T00:31:06.111Z,6
2023-03-10T00:32:06.723Z,6
2023-03-10T00:33:06.043Z,6
2023-03-10T00:34:05.922Z,6
2023-03-10T00:35:06.659Z,6
2023-03-10T00:36:06.835Z,6
2023-03-10T00:37:06.008Z,6
2023-03-10T00:38:05.849Z,5
2023-03-10T00:39:06.785Z,5
2023-03-10T00:40:06.251Z,5
2023-03-10T00:41:06.367Z,5
2023-03-10T00:42:06.081Z,5
2023-03-10T00:43:06.274Z,5
2023-03-10T00:44:06.138Z,5
2023-03-10T00:45:05.837Z,5
2023-03-10T00:46:06.492Z,5
2023-03-10T00:47:06.479Z,5
2023-03-10T00:48:06.202Z,5
2023-03-10T00:49:05.664Z,5
2023-03-10T00:50:06.508Z,5
2023-03-10T00:51:05.821Z,5
2023-03-10T00:52:06.635Z,5
2023-03-10T00:53:06.174Z,5
2023-03-10T00:54:05.972Z,5
2023-03-10T00:55:06.547Z,5
2023-03-10T00:56:05.697Z,5
2023-03-10T00:57:06.288Z,5
2023-03-10T00:58:05.892Z,4
2023-03-10T00:59:06.413Z,4
2023-03-10T01:00:06.106Z,4
2023-03-10T01:01:06.144Z,4
2023-03-10T01:02:07.142Z,4
2023-03-10T01:03:06.281Z,5
2023-03-10T01:04:06.296Z,5
2023-03-10T01:05:06.750Z,5
2023-03-10T01:06:06.715Z,5
2023-03-10T01:07:06.371Z,5
2023-03-10T01:08:06.008Z,4
2023-03-10T01:09:06.684Z,4
2023-03-10T01:10:06.454Z,4
2023-03-10T01:11:05.994Z,4
2023-03-10T01:12:06.425Z,4
2023-03-10T01:13:05.947Z,5
2023-03-10T01:14:06.742Z,5
2023-03-10T01:15:06.398Z,5
2023-03-10T01:16:07.062Z,5
2023-03-10T01:17:06.207Z,5
2023-03-10T01:18:06.020Z,5
2023-03-10T01:19:06.616Z,5
2023-03-10T01:20:05.897Z,5
2023-03-10T01:21:06.395Z,5
2023-03-10T01:22:05.896Z,5
2023-03-10T01:23:06.717Z,5
2023-03-10T01:24:06.188Z,5
2023-03-10T01:25:06.766Z,5
2023-03-10T01:26:06.608Z,5
2023-03-10T01:27:06.202Z,5
2023-03-10T01:28:06.879Z,5
2023-03-10T01:29:06.491Z,5
2023-03-10T01:30:06.131Z,5
2023-03-10T01:31:06.520Z,5
2023-03-10T01:32:06.025Z,5
2023-03-10T01:33:06.339Z,5
2023-03-10T01:34:05.873Z,5
2023-03-10T01:35:06.659Z,5
2023-03-10T01:36:06.519Z,5
2023-03-10T01:37:05.843Z,5
2023-03-10T01:38:06.485Z,5
2023-03-10T01:39:05.948Z,5
2023-03-10T01:40:06.280Z,5
2023-03-10T01:41:06.785Z,5
2023-03-10T01:42:06.317Z,5
2023-03-10T01:43:05.860Z,5
2023-03-10T01:44:06.361Z,5
2023-03-10T01:45:06.047Z,5
2023-03-10T01:46:05.928Z,5
2023-03-10T01:47:06.635Z,5
2023-03-10T01:48:06.243Z,4
2023-03-10T01:49:06.928Z,4
2023-03-10T01:50:06.588Z,4
2023-03-10T01:51:06.572Z,4
2023-03-10T01:52:06.518Z,4
2023-03-10T01:53:05.968Z,4
2023-03-10T01:54:06.608Z,4
2023-03-10T01:55:06.238Z,4
2023-03-10T01:56:06.389Z,4
2023-03-10T01:57:05.990Z,4
2023-03-10T01:58:06.835Z,4
2023-03-10T01:59:06.382Z,4
2023-03-10T02:00:05.986Z,4
2023-03-10T02:01:06.500Z,4
2023-03-10T02:02:05.957Z,4
2023-03-10T02:03:06.603Z,4
2023-03-10T02:04:05.935Z,4
2023-03-10T02:05:05.868Z,4
2023-03-10T02:06:06.071Z,4
2023-03-10T02:07:06.641Z,4
2023-03-10T02:08:06.190Z,3
2023-03-10T02:09:05.724Z,3
2023-03-10T02:10:06.643Z,3
2023-03-10T02:11:06.744Z,3
2023-03-10T02:12:06.386Z,3
2023-03-10T02:13:06.604Z,3
2023-03-10T02:14:06.742Z,3
2023-03-10T02:15:06.393Z,3
2023-03-10T02:16:06.240Z,3
2023-03-10T02:17:06.534Z,3
2023-03-10T02:18:06.394Z,3
2023-03-10T02:19:05.801Z,3
2023-03-10T02:20:06.549Z,3
2023-03-10T02:21:05.880Z,3
2023-03-10T02:22:06.546Z,3
2023-03-10T02:23:06.070Z,3
2023-03-10T02:24:06.276Z,3
2023-03-10T02:25:06.893Z,3
2023-03-10T02:26:06.088Z,3
2023-03-10T02:27:06.721Z,3
2023-03-10T02:28:06.421Z,3
2023-03-10T02:29:06.147Z,3
2023-03-10T02:30:06.926Z,3
2023-03-10T02:31:05.983Z,3
2023-03-10T02:32:06.963Z,3
2023-03-10T02:33:06.293Z,3
2023-03-10T02:34:06.159Z,3
2023-03-10T02:35:06.734Z,3
2023-03-10T02:36:06.100Z,3
2023-03-10T02:37:06.674Z,3
2023-03-10T02:38:06.122Z,3
2023-03-10T02:39:05.875Z,3
2023-03-10T02:40:06.520Z,3
2023-03-10T02:41:06.689Z,3
2023-03-10T02:42:06.296Z,3
2023-03-10T02:43:05.830Z,3
2023-03-10T02:44:06.610Z,3
2023-03-10T02:45:06.178Z,3
2023-03-10T02:46:06.465Z,3
2023-03-10T02:47:06.048Z,3
2023-03-10T02:48:06.652Z,3
2023-03-10T02:49:06.092Z,3
2023-03-10T02:50:05.670Z,3
2023-03-10T02:51:06.104Z,3
2023-03-10T02:52:05.510Z,3
2023-03-10T02:53:06.283Z,3
2023-03-10T02:54:06.048Z,3
2023-03-10T02:55:06.654Z,3
2023-03-10T02:56:06.076Z,3
2023-03-10T02:57:06.375Z,3
2023-03-10T02:58:06.294Z,3
2023-03-10T02:59:06.340Z,3
2023-03-10T03:00:06.412Z,3
2023-03-10T03:01:07.015Z,3
2023-03-10T03:02:06.317Z,3
2023-03-10T03:03:06.017Z,3
2023-03-10T03:04:07.005Z,3
2023-03-10T03:05:06.315Z,3
2023-03-10T03:07:06.139Z,3
2023-03-10T03:08:05.651Z,3
2023-03-10T03:09:06.595Z,3
2023-03-10T03:10:06.175Z,3
2023-03-10T03:11:06.511Z,3
2023-03-10T03:12:06.308Z,3
2023-03-10T03:13:05.989Z,3
2023-03-10T03:14:06.322Z,3
2023-03-10T03:15:06.190Z,3
2023-03-10T03:16:06.184Z,3
2023-03-10T03:17:06.096Z,3
2023-03-10T03:18:06.457Z,3
2023-03-10T03:19:05.933Z,3
2023-03-10T03:20:06.691Z,3
2023-03-10T03:21:05.888Z,3
2023-03-10T03:22:06.325Z,3
2023-03-10T03:23:05.894Z,3
2023-03-10T03:24:06.480Z,3
2023-03-10T03:25:06.214Z,3
2023-03-10T03:26:06.718Z,3
2023-03-10T03:27:06.241Z,3
2023-03-10T03:28:05.878Z,2
2023-03-10T03:29:06.261Z,2
2023-03-10T03:30:06.101Z,2
2023-03-10T03:31:06.188Z,2
2023-03-10T03:32:07.277Z,2
2023-03-10T03:33:06.707Z,2
2023-03-10T03:34:06.295Z,2
2023-03-10T03:35:05.683Z,2
2023-03-10T03:36:06.462Z,2
2023-03-10T03:37:05.878Z,2
2023-03-10T03:38:06.556Z,2
2023-03-10T03:39:06.234Z,2
2023-03-10T03:40:06.030Z,2
2023-03-10T03:41:06.365Z,2
2023-03-10T03:42:06.456Z,2
2023-03-10T03:43:06.252Z,2
2023-03-10T03:44:05.884Z,2
2023-03-10T03:45:06.456Z,2
2023-03-10T03:46:06.447Z,2
2023-03-10T03:47:05.927Z,2
2023-03-10T03:48:06.431Z,2
2023-03-10T03:49:05.989Z,2
2023-03-10T03:50:06.622Z,2
2023-03-10T03:51:06.427Z,2
2023-03-10T03:52:06.208Z,2
2023-03-10T03:53:06.553Z,2
2023-03-10T03:54:06.319Z,2
2023-03-10T03:55:06.015Z,3
2023-03-10T03:56:06.777Z,3
2023-03-10T03:57:06.424Z,2
2023-03-10T03:58:05.832Z,3
2023-03-10T03:59:06.511Z,3
2023-03-10T04:00:06.317Z,3
2023-03-10T04:01:06.684Z,3
2023-03-10T04:02:06.260Z,3.1
2023-03-10T04:03:06.947Z,3.1
2023-03-10T04:04:06.269Z,3.1
2023-03-10T04:05:05.979Z,3.2
2023-03-10T04:06:06.047Z,3
2023-03-10T04:07:06.745Z,3.2
2023-03-10T04:08:06.314Z,3.2
2023-03-10T04:09:06.717Z,3.2
2023-03-10T04:10:06.549Z,3
2023-03-10T04:11:06.136Z,3.2
2023-03-10T04:12:06.428Z,3.2
2023-03-10T04:13:06.430Z,3
2023-03-10T04:14:06.827Z,3.2
2023-03-10T04:15:06.479Z,3.2
2023-03-10T04:16:07.000Z,3.2
2023-03-10T04:17:06.303Z,3.2
2023-03-10T04:18:06.120Z,3.3
2023-03-10T04:19:06.832Z,3.3
2023-03-10T04:20:12.052Z,3.3
2023-03-10T04:21:06.763Z,3.4
2023-03-10T04:22:06.244Z,3.4
2023-03-10T04:23:06.064Z,3.4
2023-03-10T04:24:06.829Z,3.4
2023-03-10T04:25:06.310Z,3
2023-03-10T04:26:06.435Z,3.5
2023-03-10T04:27:05.986Z,3.5
2023-03-10T04:28:06.678Z,3.6
2023-03-10T04:29:06.416Z,3.6
2023-03-10T04:30:05.970Z,3.6
2023-03-10T04:31:06.493Z,3.6
2023-03-10T04:32:10.004Z,3.6
2023-03-10T04:33:06.152Z,3.6
2023-03-10T04:34:06.185Z,3.6
2023-03-10T04:35:06.640Z,3.6
2023-03-10T04:36:06.087Z,3.6
2023-03-10T04:37:06.557Z,3.7
2023-03-10T04:38:06.111Z,3.7
2023-03-10T04:39:05.698Z,3.7
2023-03-10T04:40:06.679Z,3.8
2023-03-10T04:41:05.856Z,4
2023-03-10T04:42:06.500Z,3.8
2023-03-10T04:43:06.056Z,3.9
2023-03-10T04:44:06.429Z,3.9
2023-03-10T04:45:06.234Z,3.9
2023-03-10T04:46:06.682Z,3.9
2023-03-10T04:47:06.121Z,4
2023-03-10T04:48:06.633Z,5
2023-03-10T04:49:06.037Z,4
2023-03-10T04:50:06.693Z,4
2023-03-10T04:51:05.979Z,4.1
2023-03-10T04:52:06.472Z,5
2023-03-10T04:53:06.229Z,4.2
2023-03-10T04:54:06.875Z,4.2
2023-03-10T04:55:06.527Z,4.2
2023-03-10T04:56:06.235Z,4.3
2023-03-10T04:57:05.688Z,4.3
2023-03-10T04:58:06.527Z,4.4
2023-03-10T04:59:06.247Z,4.4
2023-03-10T05:00:08.129Z,4.4
2023-03-10T05:01:08.154Z,4.4
2023-03-10T05:02:07.053Z,4.4
2023-03-10T05:03:06.101Z,4.4
2023-03-10T05:04:06.985Z,4.5
2023-03-10T05:05:06.391Z,5
2023-03-10T05:06:06.831Z,4.5
2023-03-10T05:07:06.312Z,4.6
2023-03-10T05:08:05.674Z,5
2023-03-10T05:09:06.608Z,4.6
2023-03-10T05:10:06.249Z,4.6
2023-03-10T05:11:05.949Z,4.7
2023-03-10T05:12:06.566Z,4.7
2023-03-10T05:13:06.752Z,4.7
2023-03-10T05:14:06.396Z,4.7
2023-03-10T05:15:06.018Z,4.7
2023-03-10T05:16:06.147Z,5
2023-03-10T05:17:06.060Z,4.8
2023-03-10T05:18:06.620Z,4.8
2023-03-10T05:19:06.012Z,5
2023-03-10T05:20:06.539Z,4.8
2023-03-10T05:21:06.362Z,5
2023-03-10T05:22:06.067Z,4.9
2023-03-10T05:23:06.802Z,4.9
2023-03-10T05:24:06.393Z,4.9
2023-03-10T05:25:05.950Z,4.9
2023-03-10T05:26:06.564Z,4.9
2023-03-10T05:27:06.123Z,5
2023-03-10T05:28:06.719Z,6
2023-03-10T05:29:06.193Z,5
2023-03-10T05:30:05.862Z,5
2023-03-10T05:31:06.198Z,6
2023-03-10T05:32:06.697Z,5.1
2023-03-10T05:33:06.330Z,5.1
2023-03-10T05:34:05.955Z,5.1
2023-03-10T05:35:06.774Z,5.1
2023-03-10T05:36:06.664Z,5.2
2023-03-10T05:37:06.070Z,6
2023-03-10T05:38:06.588Z,5.2
2023-03-10T05:39:06.404Z,6
2023-03-10T05:40:06.126Z,5.2
2023-03-10T05:41:06.118Z,5.2
2023-03-10T05:42:05.894Z,5.2
2023-03-10T05:43:06.823Z,5.2
2023-03-10T05:44:06.241Z,5.2
2023-03-10T05:45:05.896Z,5.2
2023-03-10T05:46:06.048Z,5.3
2023-03-10T05:47:06.662Z,6
2023-03-10T05:48:06.000Z,5
2023-03-10T05:49:06.480Z,5.3
2023-03-10T05:50:06.008Z,5.3
2023-03-10T05:51:06.150Z,5.4
2023-03-10T05:52:05.960Z,5.3
2023-03-10T05:53:06.379Z,5.3
2023-03-10T05:54:06.039Z,5.4
2023-03-10T05:55:06.655Z,5.4
2023-03-10T05:56:05.908Z,5.4
2023-03-10T05:57:06.427Z,5.4
2023-03-10T05:58:06.058Z,5.4
2023-03-10T05:59:06.485Z,6
2023-03-10T06:00:06.099Z,5.4
2023-03-10T06:01:06.313Z,5.4
2023-03-10T06:02:05.974Z,5.5
2023-03-10T06:03:06.705Z,6
2023-03-10T06:04:06.289Z,5.5
2023-03-10T06:05:05.630Z,5.5
2023-03-10T06:06:06.187Z,5.5
2023-03-10T06:07:05.914Z,5.5
2023-03-10T06:08:06.539Z,5.5
2023-03-10T06:09:06.028Z,5.5
2023-03-10T06:10:06.699Z,5.6
2023-03-10T06:11:06.381Z,5.6
2023-03-10T06:12:06.117Z,5.6
2023-03-10T06:13:06.697Z,5.6
2023-03-10T06:14:06.135Z,5.6
2023-03-10T06:15:06.101Z,6
2023-03-10T06:16:06.553Z,5.6
2023-03-10T06:17:06.140Z,5.6
2023-03-10T06:18:06.561Z,6
2023-03-10T06:19:06.224Z,5.6
2023-03-10T06:20:06.897Z,5.7
2023-03-10T06:21:06.620Z,5.7
2023-03-10T06:22:06.130Z,5.7
2023-03-10T06:23:06.677Z,5.7
2023-03-10T06:24:06.321Z,5.7
2023-03-10T06:25:05.945Z,5.7
2023-03-10T06:26:06.181Z,5.7
2023-03-10T06:27:06.773Z,5.7
2023-03-10T06:28:07.680Z,5.8
2023-03-10T06:29:06.026Z,5.8
2023-03-10T06:30:06.609Z,5.8
2023-03-10T06:31:06.235Z,5.8
2023-03-10T06:32:06.029Z,5.8
2023-03-10T06:33:06.451Z,5.8
2023-03-10T06:34:08.606Z,6
2023-03-10T06:35:06.558Z,5.8
2023-03-10T06:36:06.176Z,5.8
2023-03-10T06:37:06.558Z,5.8
2023-03-10T06:38:06.142Z,6
2023-03-10T06:39:06.725Z,5.8
2023-03-10T06:40:06.332Z,5.8
2023-03-10T06:41:06.651Z,5.9
2023-03-10T06:42:06.466Z,6
2023-03-10T06:43:05.999Z,5.8
2023-03-10T06:44:06.671Z,5.8
2023-03-10T06:45:05.977Z,5.8
2023-03-10T06:46:06.801Z,5.8
2023-03-10T06:47:06.155Z,5.8
2023-03-10T06:48:06.919Z,5.9
2023-03-10T06:49:06.145Z,5.8
2023-03-10T06:50:06.101Z,6
2023-03-10T06:51:06.062Z,5.9
2023-03-10T06:52:06.411Z,5.9
2023-03-10T06:53:06.139Z,5.9
2023-03-10T06:54:06.883Z,6
2023-03-10T06:55:06.456Z,6
2023-03-10T06:56:05.786Z,6
2023-03-10T06:57:06.508Z,6
2023-03-10T06:58:06.097Z,6
2023-03-10T06:59:06.471Z,6.1
2023-03-10T07:00:06.425Z,6.2
2023-03-10T07:01:06.945Z,6.2
2023-03-10T07:02:06.282Z,6
2023-03-10T07:03:05.916Z,6.2
2023-03-10T07:04:06.183Z,6.3
2023-03-10T07:05:06.378Z,6.3
2023-03-10T07:06:06.397Z,6.4
2023-03-10T07:07:05.774Z,6.4
2023-03-10T07:08:06.413Z,6.5
2023-03-10T07:09:06.058Z,6.5
2023-03-10T07:10:09.081Z,6.6
2023-03-10T07:11:06.119Z,6.6
2023-03-10T07:12:06.947Z,6.7
2023-03-10T07:13:06.170Z,6.7
2023-03-10T07:14:05.821Z,7
2023-03-10T07:15:06.317Z,7
2023-03-10T07:16:06.570Z,6.8
2023-03-10T07:17:06.799Z,7
2023-03-10T07:18:05.935Z,7
2023-03-10T07:19:06.649Z,7
2023-03-10T07:20:06.533Z,7.1
2023-03-10T07:21:06.549Z,7.1
2023-03-10T07:22:06.278Z,7.1
2023-03-10T07:23:06.681Z,7.2
2023-03-10T07:24:06.683Z,7.2
2023-03-10T07:25:05.935Z,7.2
2023-03-10T07:26:06.031Z,7.4
2023-03-10T07:27:06.454Z,7.4
2023-03-10T07:28:06.323Z,7.4
2023-03-10T07:29:05.529Z,7.5
2023-03-10T07:30:06.492Z,7.6
2023-03-10T07:31:07.002Z,7.7
2023-03-10T07:32:06.273Z,7.8
2023-03-10T07:33:05.774Z,7.8
2023-03-10T07:34:06.374Z,7.8
2023-03-10T07:35:06.173Z,7.9
2023-03-10T07:36:06.650Z,8
2023-03-10T07:37:06.119Z,8
2023-03-10T07:38:06.241Z,8.1
2023-03-10T07:39:05.996Z,8.2
2023-03-10T07:40:06.608Z,8.3
2023-03-10T07:41:06.496Z,8.3
2023-03-10T07:42:06.117Z,8.4
2023-03-10T07:43:06.823Z,8.4
2023-03-10T07:44:06.160Z,8.4
2023-03-10T07:45:05.779Z,8.6
2023-03-10T07:46:06.155Z,8.6
2023-03-10T07:47:06.572Z,8
2023-03-10T07:48:06.215Z,8.8
2023-03-10T07:49:06.919Z,8.9
2023-03-10T07:50:06.168Z,9
2023-03-10T07:51:06.415Z,9
2023-03-10T07:52:06.170Z,9.2
2023-03-10T07:53:06.736Z,9.2
2023-03-10T07:54:06.357Z,9.4
2023-03-10T07:55:05.895Z,9.4
2023-03-10T07:56:06.207Z,9.6
2023-03-10T07:57:05.741Z,9.6
2023-03-10T07:58:06.245Z,9.7
2023-03-10T07:59:05.994Z,9.8
2023-03-10T08:00:06.295Z,9.8
2023-03-10T08:01:06.672Z,10
2023-03-10T08:02:06.310Z,10.1
2023-03-10T08:03:05.999Z,10.2
2023-03-10T08:04:06.961Z,10.3
2023-03-10T08:05:06.654Z,10.4
2023-03-10T08:06:06.222Z,10.5
2023-03-10T08:07:06.006Z,10.6
2023-03-10T08:08:06.921Z,10.7
2023-03-10T08:09:06.230Z,10.8
2023-03-10T08:10:06.164Z,11
2023-03-10T08:11:06.406Z,11.1
2023-03-10T08:12:06.758Z,11.1
2023-03-10T08:13:06.552Z,12
2023-03-10T08:14:06.271Z,11.2
2023-03-10T08:15:06.651Z,11.3
2023-03-10T08:16:06.320Z,11.5
2023-03-10T08:17:06.382Z,11.6
2023-03-10T08:18:06.052Z,11.6
2023-03-10T08:19:06.568Z,11.7
2023-03-10T08:20:06.400Z,11.7
2023-03-10T08:21:06.602Z,11.8
2023-03-10T08:22:06.338Z,12
2023-03-10T08:23:05.904Z,11.8
2023-03-10T08:24:06.431Z,12
2023-03-10T08:25:05.965Z,11.8
2023-03-10T08:26:06.346Z,11.8
2023-03-10T08:27:05.891Z,11.8
2023-03-10T08:28:06.478Z,11.8
2023-03-10T08:29:06.158Z,11.9
2023-03-10T08:30:06.812Z,11.9
2023-03-10T08:31:09.653Z,11.9
2023-03-10T08:32:06.804Z,11.9
2023-03-10T08:33:06.518Z,12
2023-03-10T08:34:05.905Z,12
2023-03-10T08:35:06.289Z,12
2023-03-10T08:36:06.775Z,12.1
2023-03-10T08:37:06.291Z,12.1
2023-03-10T08:38:05.696Z,12.2
2023-03-10T08:39:06.612Z,12.3
2023-03-10T08:40:06.018Z,12.4
2023-03-10T08:41:06.090Z,12.4
2023-03-10T08:42:06.821Z,12.5
2023-03-10T08:43:06.073Z,12.5
2023-03-10T08:44:06.996Z,12.6
2023-03-10T08:45:08.864Z,12.6
2023-03-10T08:46:08.740Z,12.5
2023-03-10T08:47:06.672Z,12.5
2023-03-10T08:48:05.810Z,13
2023-03-10T08:49:06.508Z,12.5
2023-03-10T08:50:06.222Z,12.5
2023-03-10T08:51:06.241Z,12.5
2023-03-10T08:52:05.846Z,12.5
2023-03-10T08:53:06.598Z,12.4
2023-03-10T08:54:05.983Z,12.5
2023-03-10T08:55:05.929Z,12.5
2023-03-10T08:56:06.247Z,12.5
2023-03-10T08:57:05.943Z,12.5
2023-03-10T08:58:06.323Z,12.5
2023-03-10T08:59:05.761Z,12.5
2023-03-10T09:00:06.783Z,12.5
2023-03-10T09:01:06.754Z,12.6
2023-03-10T09:02:06.715Z,12.6
2023-03-10T09:03:06.875Z,12.6
2023-03-10T09:04:06.279Z,12.7
2023-03-10T09:05:05.991Z,12.7
2023-03-10T09:06:06.091Z,12.7
2023-03-10T09:07:06.780Z,12.8
2023-03-10T09:08:06.288Z,12.8
2023-03-10T09:09:05.796Z,12.7
2023-03-10T09:10:06.374Z,12.8
2023-03-10T09:11:06.611Z,12
2023-03-10T09:12:06.434Z,12.8
2023-03-10T09:13:17.514Z,12.8
2023-03-10T09:14:06.885Z,12.8
2023-03-10T09:15:06.269Z,12.8
2023-03-10T09:16:06.938Z,12.9
2023-03-10T09:17:06.443Z,12.9
2023-03-10T09:18:06.507Z,12.9
2023-03-10T09:19:06.347Z,12.9
2023-03-10T09:20:06.036Z,13
2023-03-10T09:21:05.912Z,12.9
2023-03-10T09:22:06.569Z,13
2023-03-10T09:23:06.069Z,12.9
2023-03-10T09:24:06.613Z,12.9
2023-03-10T09:25:06.307Z,12.9
2023-03-10T09:26:06.332Z,12.9
2023-03-10T09:27:06.399Z,12.9
2023-03-10T09:28:05.884Z,12.9
2023-03-10T09:29:06.400Z,12.9
2023-03-10T09:30:06.136Z,12.8
2023-03-10T09:31:06.094Z,12.9
2023-03-10T09:32:09.276Z,12.9
2023-03-10T09:33:06.709Z,12.9
2023-03-10T09:34:05.874Z,12.9
2023-03-10T09:35:06.306Z,12.9
2023-03-10T09:36:11.486Z,12.9
2023-03-10T09:37:08.396Z,13
2023-03-10T09:38:05.951Z,12.9
2023-03-10T09:39:06.643Z,13
2023-03-10T09:40:08.451Z,13
2023-03-10T09:41:08.659Z,13.1
2023-03-10T09:42:06.240Z,13.2
2023-03-10T09:43:06.548Z,13.2
2023-03-10T09:44:06.629Z,13.2
2023-03-10T09:45:06.049Z,13.3
2023-03-10T09:46:06.483Z,13.4
2023-03-10T09:47:05.598Z,13
2023-03-10T09:48:08.685Z,13
2023-03-10T09:49:05.922Z,13.5
2023-03-10T09:50:06.654Z,13.5
2023-03-10T09:51:06.530Z,13.6
2023-03-10T09:52:06.174Z,13.6
2023-03-10T09:53:06.658Z,13.8
2023-03-10T09:54:06.143Z,13.9
2023-03-10T09:55:06.737Z,14
2023-03-10T09:56:06.396Z,14.1
2023-03-10T09:57:05.709Z,14.2
2023-03-10T09:58:08.220Z,14.3
2023-03-10T09:59:06.230Z,13
2023-03-10T10:00:06.746Z,14.5
2023-03-10T10:01:06.967Z,14.7
2023-03-10T10:02:06.289Z,14.8
2023-03-10T10:03:08.650Z,14.9
2023-03-10T10:04:07.023Z,14.9
2023-03-10T10:05:08.338Z,15
2023-03-10T10:06:05.963Z,15.1
2023-03-10T10:07:06.459Z,15.1
2023-03-10T10:08:06.350Z,15.3
2023-03-10T10:09:09.498Z,15.4
2023-03-10T10:10:06.557Z,15.3
2023-03-10T10:11:05.861Z,15.4
2023-03-10T10:12:06.225Z,15.5
2023-03-10T10:13:06.136Z,15.4
2023-03-10T10:14:06.261Z,15.4
2023-03-10T10:15:05.901Z,15.4
2023-03-10T10:16:35.012Z,15.4
2023-03-10T10:17:06.757Z,15.4
2023-03-10T10:18:25.766Z,15.4
2023-03-10T10:19:06.513Z,15.4
2023-03-10T10:20:05.755Z,15.4
2023-03-10T10:21:06.187Z,15.4
2023-03-10T10:22:05.710Z,15.3
2023-03-10T10:23:06.679Z,15.2
2023-03-10T10:24:06.594Z,15.2
2023-03-10T10:25:10.130Z,15.2
2023-03-10T10:26:07.021Z,15.4
2023-03-10T10:27:05.901Z,15.4
2023-03-10T10:28:06.645Z,15.4
2023-03-10T10:29:06.302Z,15.3
2023-03-10T10:30:06.182Z,15.2
2023-03-10T10:31:06.853Z,15.2
2023-03-10T10:32:06.441Z,15
2023-03-10T10:33:05.693Z,14.9
2023-03-10T10:34:06.487Z,14.9
2023-03-10T10:35:06.105Z,14.8
2023-03-10T10:36:06.768Z,13
2023-03-10T10:37:06.306Z,13
2023-03-10T10:38:06.584Z,14.5
2023-03-10T10:39:06.316Z,14.4
2023-03-10T10:40:06.536Z,14.2
2023-03-10T10:41:09.776Z,14
2023-03-10T10:42:05.640Z,14
2023-03-10T10:43:06.297Z,13.9
2023-03-10T10:44:06.018Z,13.8
2023-03-10T10:45:06.596Z,13.6
2023-03-10T10:46:06.120Z,12
2023-03-10T10:47:06.482Z,12
2023-03-10T10:48:06.083Z,13.4
2023-03-10T10:49:05.516Z,13.3
2023-03-10T10:50:06.486Z,13.2
2023-03-10T10:51:06.073Z,13.2
2023-03-10T10:52:06.042Z,13.1
2023-03-10T10:53:06.332Z,13
2023-03-10T10:54:06.169Z,13.1
2023-03-10T10:55:06.889Z,13
2023-03-10T10:56:06.215Z,13
2023-03-10T10:57:05.854Z,13
2023-03-10T10:58:06.559Z,12.9
2023-03-10T10:59:06.022Z,12.8
2023-03-10T11:00:06.780Z,12.8
2023-03-10T11:01:06.292Z,12.8
2023-03-10T11:02:06.930Z,12.8
2023-03-10T11:03:06.186Z,12.8
2023-03-10T11:04:06.019Z,12.8
2023-03-10T11:05:06.373Z,12.7
2023-03-10T11:06:06.380Z,12.7
2023-03-10T11:07:06.158Z,12.6
2023-03-10T11:08:05.890Z,12.6
2023-03-10T11:09:08.274Z,12.5
2023-03-10T11:10:05.641Z,12.5
2023-03-10T11:11:06.358Z,12.4
2023-03-10T11:12:06.136Z,12.3
2023-03-10T11:13:06.249Z,10
2023-03-10T11:14:06.040Z,12.2
2023-03-10T11:15:06.579Z,12.2
2023-03-10T11:16:06.257Z,12.1
2023-03-10T11:17:06.343Z,12.1
2023-03-10T11:18:05.913Z,12.2
2023-03-10T11:19:06.655Z,12.2
2023-03-10T11:20:06.193Z,12.2
2023-03-10T11:21:06.490Z,12.3
2023-03-10T11:22:05.920Z,12.3
2023-03-10T11:23:06.277Z,12.4
2023-03-10T11:24:05.916Z,11
2023-03-10T11:25:06.772Z,12.4
2023-03-10T11:26:06.811Z,12.4
2023-03-10T11:27:06.184Z,11
2023-03-10T11:28:05.925Z,12.5
2023-03-10T11:29:06.635Z,12.6
2023-03-10T11:30:05.990Z,12.6
2023-03-10T11:31:06.751Z,11
2023-03-10T11:32:06.232Z,12.7
2023-03-10T11:33:05.981Z,12.6
2023-03-10T11:34:06.500Z,12.6
2023-03-10T11:35:05.892Z,12.5
2023-03-10T11:36:06.684Z,12.4
2023-03-10T11:37:05.945Z,12.5
2023-03-10T11:38:06.560Z,12.4
2023-03-10T11:39:06.205Z,12.4
2023-03-10T11:40:05.536Z,12.3
2023-03-10T11:41:05.941Z,12.3
2023-03-10T11:42:06.585Z,12.2
2023-03-10T11:43:06.557Z,10
2023-03-10T11:44:06.011Z,12
2023-03-10T11:45:06.870Z,10
2023-03-10T11:46:06.911Z,12
2023-03-10T11:47:06.062Z,11.9
2023-03-10T11:48:05.916Z,11.9
2023-03-10T11:49:06.348Z,11.9
2023-03-10T11:50:06.102Z,12
2023-03-10T11:51:05.789Z,11.9
2023-03-10T11:52:05.808Z,11.9
2023-03-10T11:53:06.562Z,11.9
2023-03-10T11:54:05.875Z,11.8
2023-03-10T11:55:05.934Z,11.8
2023-03-10T11:56:05.893Z,11.8
2023-03-10T11:57:06.530Z,11.9
2023-03-10T11:58:05.852Z,12
2023-03-10T11:59:06.563Z,11.9
2023-03-10T12:00:05.985Z,11.9
2023-03-10T12:01:06.301Z,12
2023-03-10T12:02:05.965Z,12.1
2023-03-10T12:03:06.460Z,12.1
2023-03-10T12:04:05.914Z,12.3
2023-03-10T12:05:06.677Z,12.3
2023-03-10T12:06:06.574Z,12.4
2023-03-10T12:07:05.834Z,12.4
2023-03-10T12:08:06.625Z,12.4
2023-03-10T12:09:06.166Z,11
2023-03-10T12:10:06.554Z,12.6
2023-03-10T12:11:05.844Z,12.7
2023-03-10T12:12:06.689Z,12.7
2023-03-10T12:13:06.160Z,12.8
2023-03-10T12:14:05.786Z,12.8
2023-03-10T12:15:06.657Z,12.8
2023-03-10T12:16:06.940Z,12.9
2023-03-10T12:17:06.376Z,12.9
2023-03-10T12:18:06.447Z,13
2023-03-10T12:19:06.084Z,13
2023-03-10T12:20:06.585Z,12
2023-03-10T12:21:06.183Z,13.1
2023-03-10T12:22:06.576Z,12
2023-03-10T12:23:06.177Z,13.1
2023-03-10T12:24:06.537Z,13.1
2023-03-10T12:25:06.366Z,13.2
2023-03-10T12:26:06.656Z,13.2
2023-03-10T12:27:06.192Z,13.3
2023-03-10T12:28:05.941Z,13.3
2023-03-10T12:29:06.674Z,13.3
2023-03-10T12:30:06.209Z,13.4
2023-03-10T12:31:06.819Z,13.4
2023-03-10T12:32:06.127Z,12
2023-03-10T12:33:06.638Z,13.5
2023-03-10T12:34:06.284Z,13.5
2023-03-10T12:35:06.066Z,13.4
2023-03-10T12:36:06.716Z,12
2023-03-10T12:37:06.064Z,13.4
2023-03-10T12:38:05.608Z,13.4
2023-03-10T12:39:06.242Z,13.5
2023-03-10T12:40:06.152Z,13.6
2023-03-10T12:41:05.886Z,13.7
2023-03-10T12:42:06.095Z,13.7
2023-03-10T12:43:05.886Z,13.8
2023-03-10T12:44:06.460Z,13.9
2023-03-10T12:45:05.760Z,14
2023-03-10T12:46:06.215Z,14
2023-03-10T12:47:06.431Z,14
2023-03-10T12:48:05.787Z,14
2023-03-10T12:49:06.334Z,14
2023-03-10T12:50:05.787Z,14.1
2023-03-10T12:51:06.132Z,14.3
2023-03-10T12:52:06.707Z,14.4
2023-03-10T12:53:06.285Z,14.4
2023-03-10T12:54:05.865Z,14.5
2023-03-10T12:55:06.505Z,14.5
2023-03-10T12:56:06.841Z,14.5
2023-03-10T12:57:06.293Z,14.4
2023-03-10T12:58:05.961Z,14.4
2023-03-10T12:59:06.517Z,13
2023-03-10T13:00:05.935Z,14.6
2023-03-10T13:01:06.526Z,14.6
2023-03-10T13:02:06.096Z,14.7
2023-03-10T13:03:06.523Z,14.6
2023-03-10T13:04:07.044Z,14.6
2023-03-10T13:05:06.136Z,14.5
2023-03-10T13:06:06.001Z,14.5
2023-03-10T13:07:06.349Z,14
2023-03-10T13:08:06.603Z,14.5
2023-03-10T13:09:05.716Z,14.5
2023-03-10T13:10:06.064Z,14.4
2023-03-10T13:11:06.467Z,14.3
2023-03-10T13:12:06.702Z,14.2
2023-03-10T13:13:06.117Z,14.2
2023-03-10T13:14:06.319Z,14.1
2023-03-10T13:15:06.577Z,14
2023-03-10T13:16:06.070Z,13.9
2023-03-10T13:17:06.190Z,13.9
2023-03-10T13:18:06.449Z,13.8
2023-03-10T13:19:06.677Z,13.9
2023-03-10T13:20:05.901Z,13.9
2023-03-10T13:21:06.227Z,13.9
2023-03-10T13:22:06.294Z,13.8
2023-03-10T13:23:05.985Z,13.9
2023-03-10T13:24:06.112Z,13.9
2023-03-10T13:25:06.368Z,13
2023-03-10T13:26:06.019Z,13.9
2023-03-10T13:27:06.530Z,13.9
2023-03-10T13:28:05.859Z,13.8
2023-03-10T13:29:05.932Z,13.8
2023-03-10T13:30:06.417Z,13.8
2023-03-10T13:31:06.819Z,13.8
2023-03-10T13:32:06.469Z,13.7
2023-03-10T13:33:06.825Z,13.7
2023-03-10T13:34:06.421Z,13.6
2023-03-10T13:35:06.101Z,13.6
2023-03-10T13:36:06.036Z,12
2023-03-10T13:37:06.038Z,13.5
2023-03-10T13:38:06.361Z,13.5
2023-03-10T13:39:06.474Z,13.5
2023-03-10T13:40:06.747Z,13.5
2023-03-10T13:41:06.194Z,13.4
2023-03-10T13:42:06.262Z,13.4
2023-03-10T13:43:06.521Z,12
2023-03-10T13:44:05.854Z,13.3
2023-03-10T13:45:06.012Z,13.3
2023-03-10T13:46:06.471Z,13.3
2023-03-10T13:47:06.485Z,12
2023-03-10T13:48:06.771Z,13.2
2023-03-10T13:49:05.919Z,13.2
2023-03-10T13:50:06.158Z,13.1
2023-03-10T13:51:06.108Z,13.1
2023-03-10T13:52:06.225Z,13
2023-03-10T13:53:06.904Z,13
2023-03-10T13:54:06.773Z,12.9
2023-03-10T13:55:06.093Z,12.9
2023-03-10T13:56:06.298Z,12.9
2023-03-10T13:57:06.313Z,12.9
2023-03-10T13:58:06.736Z,12.8